F/V Le Gamin — FQLG — position and weather

sailwx.info

Track history (hours):
 
Tides and Currents Weather Stations Pressure Air Temp Water Temp Dewpoint Dewpoint Depression Visibility Wind Speed Wind Dir Waves Ship Positions

F/V Le Gamin

Last reported at 2018-Jan-22 16:01 UTC. Time now 2018-Jan-22 18:28 UTC.
Position N 47°16' W 002°36'.

Length 15 m.

Type: Fishing. MMSI: 227876000.

Date/timePositionNaut miles runAvg speedWind from/ knotsBaromVisibWave heightAir tempDewpointWater temp
2018-Jan-22 16:01N 47°16' W 002°36'0 9.2
2018-Jan-22 16:00N 47°16' W 002°35'4 7.3
2018-Jan-22 15:29N 47°19' W 002°32'  
2018-Jan-20 03:38N 47°18' W 002°31'0 0.0
2018-Jan-20 03:29N 47°18' W 002°31'0 0.0
2018-Jan-20 02:59N 47°18' W 002°31'0 0.0
2018-Jan-20 02:29N 47°18' W 002°31'1 1.7
2018-Jan-20 01:58N 47°19' W 002°31'3 6.8
2018-Jan-20 01:30N 47°17' W 002°35'4 8.8
2018-Jan-20 01:00N 47°13' W 002°37'4 9.1
2018-Jan-20 00:30N 47°08' W 002°39'1 0.1
2018-Jan-19 04:00N 47°08' W 002°42'4 8.7
2018-Jan-19 03:30N 47°12' W 002°39'4 8.7
2018-Jan-19 03:01N 47°16' W 002°36'4 8.3
2018-Jan-19 02:30N 47°19' W 002°32'1 0.1
2018-Jan-18 14:42N 47°18' W 002°31'1 6.0
2018-Jan-18 14:30N 47°19' W 002°31'  
Track history (hours):
 
Tides and Currents Weather Stations Pressure Air Temp Water Temp Dewpoint Dewpoint Depression Visibility Wind Speed Wind Dir Waves Ship Positions

F/V Le Gamin

Last reported at 2018-Jan-22 16:01 UTC. Time now 2018-Jan-22 18:28 UTC.
Position N 47°16' W 002°36'.

Length 15 m.

Type: Fishing. MMSI: 227876000.

Date/timePositionNaut miles runAvg speedWind from/ knotsBaromVisibWave heightAir tempDewpointWater temp
2018-Jan-22 16:01N 47°16' W 002°36'0 9.2
2018-Jan-22 16:00N 47°16' W 002°35'4 7.3
2018-Jan-22 15:29N 47°19' W 002°32'  
2018-Jan-20 03:38N 47°18' W 002°31'0 0.0
2018-Jan-20 03:29N 47°18' W 002°31'0 0.0
2018-Jan-20 02:59N 47°18' W 002°31'0 0.0
2018-Jan-20 02:29N 47°18' W 002°31'1 1.7
2018-Jan-20 01:58N 47°19' W 002°31'3 6.8
2018-Jan-20 01:30N 47°17' W 002°35'4 8.8
2018-Jan-20 01:00N 47°13' W 002°37'4 9.1
2018-Jan-20 00:30N 47°08' W 002°39'1 0.1
2018-Jan-19 04:00N 47°08' W 002°42'4 8.7
2018-Jan-19 03:30N 47°12' W 002°39'4 8.7
2018-Jan-19 03:01N 47°16' W 002°36'4 8.3
2018-Jan-19 02:30N 47°19' W 002°32'1 0.1
2018-Jan-18 14:42N 47°18' W 002°31'1 6.0
2018-Jan-18 14:30N 47°19' W 002°31'  

Dump ship's entire track history